Egg Harbor Township, New Jersey
Current Conditions -  °F | °C
As of 3:54 AM on Friday 24 Oct 2014 (Local Time) from KACY Reporting Station
Scattered Clouds Scattered Clouds  
Wind Chill: 45°   Ceiling: Unl
Heat Index: 48°   Visibility: 10mi
Dew Point: 44°   Wind: 6mph
Humidity: 86%   Direction: 270°W
Pressure: 29.82"   Gusts: NA
Location:  39.52°N, 74.64°W
Report Text: KACY 240754Z 27005KT 10SM SCT065 09/07 A2982 RMK AO2 SLP097 T00890067
Loading
Personal Weather Stations






























Interactive Weather Map
Tropical Storm Tracking
New forecast layout! Learn more

10-Day Weather Forecast

Advertisements
Track Severe Weather on mobile